Startpagina
METAR-TAF:

METAR-TAF

Vliegvelden :

Brasilia, Federaal District, Brazilië

Aeroporto Internacional de Brasília

breedte: 15-52S, lengte: 047-56W, hoogte: 1061 m

Actueel weer

Dit bericht is 7 minuten geleden gemaakt, om 20:00 UTC
Wind 11 kt uit het oostnoordoosten
Temperatuur 30°C
Vochtigheid 24%
Druk 1013 hPa
Zicht 10 km of meer
Weinig wolken op 4500 ft

METAR: SBBR 222000Z 07011KT 9999 FEW045 30/07 Q1013

Tijdstip: 18:07 (20:07 UTC)

Verwachting

Dit bericht is 4 uur en het 7 minuten geleden gemaakt, om 16:00 UTC
Verwachting geldig van 22 om 18 UTC tot 23 om 18 UTC
Wind 10 kt uit het oosten
Zicht 10 km of meer
Verspreide wolken op 4000 ft
Van 22 om 2200 UTC
Wind 5 kt uit het oosten
Zicht 10 km of meer
geen wolken onder 1500 m en geen cumulonimbus
Van 23 om 1400 UTC
Wind 15 kt uit het oostnoordoosten
Zicht 10 km of meer
Verspreide wolken op 3000 ft

TAF: SBBR 221600Z 2218/2318 09010KT 9999 SCT040 TX31/2219Z TN19/2308Z FM222200 10005KT CAVOK FM231400 06015KT 9999 SCT030 RMK PDF

Waarnemingen en weersverwachtingen van meer dan 4000 vliegvelden (METAR en TAF).

De beschikbare stations zijn de gele en rode punten op de kaart.

Ga met uw muis naar het station om de naam te zien.

Klik dan om waarnemingen en weersverwachtingen te zien.

kaart wijzigen: klik op de groene knoppen met een zwart kruis om in te zoomen, op de groene knop met een streepje om uit te zoomen of op de groene pijlen voor aangrenzende kaarten.


METAR-TAF: